Dongfang, China
Current Conditions -  °F | °C
As of 2:00 AM on Saturday 22 Nov 2014 (Local Time) from ZJSY Reporting Station
Clear Clear  
Wind Chill: 72°   Ceiling: Unl
Heat Index: 72°   Visibility: 6mi
Dew Point: 68°   Wind: 4mph
Humidity: 88%   Direction: 340°NNW
Pressure: 29.94"   Gusts: NA
Location:  19.1°N, 108.62°E
Report Text: ZJSY 211800Z 34002MPS CAVOK 22/20 Q1014 NOSIG
Loading
Personal Weather Stations






























Interactive Weather Map New forecast layout! Learn more

10-Day Weather Forecast

Advertisements
Track Severe Weather on mobile